Time;durP1;ratioP1;P1;durP2;ratioP2;P2;SDS_P1;SDS_P2;PMS_P1;PMS_P2;Temp;Humidity;BMP_temperature;BMP_pressure;BME280_temperature;BME280_humidity;BME280_pressure;Samples;Min_cycle;Max_cycle;Signal;HPM_P1;HPM_P2
2022/06/22 00:01:49;;;;;;;5.80;3.83;;;18.00;99.90;;;;;;5073802;28;20424;-78
2022/06/22 00:04:20;;;;;;;5.33;4.13;;;18.00;99.90;;;;;;5073806;28;20429;-77
2022/06/22 00:06:53;;;;;;;4.17;3.77;;;18.00;99.90;;;;;;5073563;28;20998;-77
2022/06/22 00:09:23;;;;;;;5.10;3.93;;;18.00;99.90;;;;;;5073671;28;20803;-76
2022/06/22 00:11:50;;;;;;;4.73;3.43;;;17.90;99.90;;;;;;5073436;28;20899;-79
2022/06/22 00:14:24;;;;;;;4.50;3.70;;;18.00;99.90;;;;;;5073534;28;20452;-79
2022/06/22 00:16:54;;;;;;;9.10;3.77;;;18.00;99.90;;;;;;5073305;28;20428;-78
2022/06/22 00:19:41;;;;;;;4.23;3.20;;;18.00;99.90;;;;;;5073381;28;21061;-79
2022/06/22 00:22:52;;;;;;;5.10;3.67;;;18.00;99.90;;;;;;5073439;28;20828;-79
2022/06/22 00:25:47;;;;;;;7.40;4.03;;;18.00;99.90;;;;;;5010422;28;20480;-79
2022/06/22 00:28:33;;;;;;;4.40;3.50;;;17.90;99.90;;;;;;5055737;28;20424;-80
2022/06/22 00:31:14;;;;;;;10.13;4.03;;;17.90;99.90;;;;;;5072666;28;20516;-79
2022/06/22 00:34:09;;;;;;;4.97;3.77;;;17.80;99.90;;;;;;5073241;28;20423;-78
2022/06/22 00:36:50;;;;;;;4.80;3.20;;;17.80;99.90;;;;;;5072960;28;20512;-79
2022/06/22 00:39:24;;;;;;;5.73;3.30;;;17.80;99.90;;;;;;5072953;28;20946;-79
2022/06/22 00:41:56;;;;;;;8.33;4.17;;;17.70;99.90;;;;;;5072753;28;20416;-77
2022/06/22 00:44:24;;;;;;;5.53;4.10;;;17.80;99.90;;;;;;5072795;28;20461;-77
2022/06/22 00:47:00;;;;;;;4.50;3.73;;;17.80;99.90;;;;;;5072725;28;20530;-76
2022/06/22 00:49:28;;;;;;;4.40;4.00;;;17.70;99.90;;;;;;5072988;28;20420;-77
2022/06/22 00:51:57;;;;;;;5.03;3.63;;;17.70;99.90;;;;;;5072629;28;20433;-77
2022/06/22 00:54:27;;;;;;;7.47;3.80;;;17.70;99.90;;;;;;5072789;28;20428;-77
2022/06/22 00:57:05;;;;;;;6.17;3.40;;;17.70;99.90;;;;;;5072473;28;20424;-77
2022/06/22 00:59:36;;;;;;;4.70;3.43;;;17.60;99.90;;;;;;5072659;28;20445;-78
2022/06/22 01:02:12;;;;;;;3.97;3.30;;;17.50;99.90;;;;;;5072761;28;20474;-76
2022/06/22 01:04:53;;;;;;;7.93;3.63;;;17.50;99.90;;;;;;5072466;28;20470;-78
2022/06/22 01:07:31;;;;;;;5.17;3.67;;;17.40;99.90;;;;;;5072600;28;20837;-84
2022/06/22 01:10:05;;;;;;;5.47;4.23;;;17.30;99.90;;;;;;5072637;28;20507;-79
2022/06/22 01:12:48;;;;;;;6.80;4.30;;;17.20;99.90;;;;;;5072406;28;20868;-78
2022/06/22 01:15:24;;;;;;;3.67;3.37;;;17.10;99.90;;;;;;5072548;28;20424;-79
2022/06/22 01:18:05;;;;;;;6.93;3.27;;;17.10;99.90;;;;;;5072449;28;20421;-78
2022/06/22 01:20:56;;;;;;;5.70;3.50;;;17.00;99.90;;;;;;5072351;28;20496;-77
2022/06/22 01:23:41;;;;;;;5.60;3.63;;;17.00;99.90;;;;;;5072415;28;20409;-80
2022/06/22 04:32:05;;;;;;;5.05;4.20;;;15.60;99.90;;;;;;5332739;23;20542;-87
2022/06/22 04:34:39;;;;;;;6.60;4.50;;;15.70;99.90;;;;;;4956417;29;20182;-80
2022/06/22 04:37:25;;;;;;;12.37;5.00;;;15.90;99.90;;;;;;4956300;29;20500;-85
2022/06/22 04:40:09;;;;;;;7.03;4.33;;;16.00;99.90;;;;;;4956434;29;20422;-82
2022/06/22 04:42:35;;;;;;;6.77;3.73;;;16.10;99.90;;;;;;4954758;29;20528;-86
2022/06/22 04:45:00;;;;;;;5.10;3.70;;;16.20;99.90;;;;;;4955067;29;21028;-85
2022/06/22 04:47:32;;;;;;;4.90;3.57;;;16.30;99.90;;;;;;4955053;29;20194;-79
2022/06/22 04:50:05;;;;;;;7.03;4.20;;;16.40;99.90;;;;;;4954334;29;20171;-78
2022/06/22 04:52:48;;;;;;;4.80;4.30;;;16.40;99.90;;;;;;4952727;29;20434;-77
2022/06/22 04:55:20;;;;;;;5.50;3.83;;;16.50;99.90;;;;;;4953131;29;20426;-77
2022/06/22 04:57:50;;;;;;;8.03;4.27;;;16.70;99.90;;;;;;4952735;29;20422;-74
2022/06/22 05:00:20;;;;;;;6.90;4.63;;;16.80;99.90;;;;;;4953296;29;20435;-75
2022/06/22 05:02:49;;;;;;;4.60;3.90;;;16.90;99.90;;;;;;4952875;29;20427;-79
2022/06/22 05:05:25;;;;;;;12.80;4.60;;;17.00;99.90;;;;;;4952892;29;20532;-77
2022/06/22 05:08:25;;;;;;;10.07;5.07;;;17.10;99.90;;;;;;4954543;29;20426;-79
2022/06/22 05:10:59;;;;;;;14.03;4.10;;;17.30;99.90;;;;;;4946546;29;20505;-79
2022/06/22 05:13:39;;;;;;;9.03;4.93;;;17.50;99.90;;;;;;4954441;29;20426;-82
2022/06/22 05:16:09;;;;;;;8.43;5.00;;;17.50;99.90;;;;;;4954120;28;20441;-77
2022/06/22 05:18:36;;;;;;;5.97;4.80;;;17.50;99.90;;;;;;4954408;29;20509;-77
2022/06/22 05:21:32;;;;;;;8.67;3.90;;;17.50;99.90;;;;;;4954155;29;20434;-76
2022/06/22 05:24:02;;;;;;;9.97;3.47;;;17.60;99.90;;;;;;4943576;29;20946;-77
2022/06/22 05:26:29;;;;;;;8.17;4.67;;;17.60;99.90;;;;;;4942853;29;20877;-80
2022/06/22 05:29:16;;;;;;;5.63;3.90;;;17.70;99.90;;;;;;4944226;29;20436;-79
2022/06/22 05:31:48;;;;;;;6.80;4.27;;;17.80;99.90;;;;;;4943763;29;20466;-79
2022/06/22 05:34:18;;;;;;;10.50;5.67;;;17.90;99.90;;;;;;4945191;29;20442;-77
2022/06/22 05:36:53;;;;;;;8.07;4.80;;;18.00;99.90;;;;;;4952583;29;20418;-77
2022/06/22 05:39:18;;;;;;;9.00;4.50;;;18.10;99.90;;;;;;4955149;29;20440;-79
2022/06/22 05:41:46;;;;;;;4.40;3.97;;;18.20;99.90;;;;;;4954942;29;20933;-79
2022/06/22 05:44:15;;;;;;;10.37;5.33;;;18.30;99.90;;;;;;4954956;29;20585;-79
2022/06/22 05:46:54;;;;;;;11.87;4.60;;;18.30;99.90;;;;;;4954825;29;20989;-78
2022/06/22 05:49:25;;;;;;;8.37;4.60;;;18.50;99.90;;;;;;4955316;29;20513;-78
2022/06/22 05:52:04;;;;;;;10.43;4.60;;;18.50;99.90;;;;;;4954791;29;20941;-78
2022/06/22 05:54:43;;;;;;;7.23;5.27;;;18.60;99.90;;;;;;4954970;29;20421;-78
2022/06/22 05:57:20;;;;;;;10.30;5.13;;;18.70;99.90;;;;;;4954989;29;20426;-78
2022/06/22 06:00:00;;;;;;;5.63;4.60;;;18.90;99.90;;;;;;4954880;29;20464;-78
2022/06/22 06:02:38;;;;;;;7.20;6.20;;;19.00;99.90;;;;;;4937922;29;20782;-83
2022/06/22 06:05:24;;;;;;;7.40;4.40;;;19.00;99.90;;;;;;4955043;29;20493;-84
2022/06/22 06:07:53;;;;;;;8.17;5.07;;;19.20;99.90;;;;;;4954913;29;20457;-82
2022/06/22 06:10:34;;;;;;;5.63;5.00;;;19.30;99.90;;;;;;4954935;29;20501;-76
2022/06/22 06:13:04;;;;;;;8.00;5.47;;;19.50;99.90;;;;;;4954898;29;20508;-76
2022/06/22 06:15:34;;;;;;;11.10;4.80;;;19.50;99.90;;;;;;4954721;29;20437;-76
2022/06/22 06:18:01;;;;;;;7.00;4.17;;;19.40;99.90;;;;;;4954695;29;20409;-75
2022/06/22 06:20:39;;;;;;;7.67;4.00;;;19.50;99.90;;;;;;4950016;29;20438;-75
2022/06/22 06:23:32;;;;;;;14.20;5.07;;;19.60;99.90;;;;;;4940986;29;20427;-75
2022/06/22 06:29:02;;;;;;;11.23;4.97;;;19.60;99.90;;;;;;4938530;29;20434;-76
2022/06/22 06:31:54;;;;;;;6.90;5.10;;;19.60;99.90;;;;;;4938917;29;20473;-76
2022/06/22 06:34:27;;;;;;;6.17;4.80;;;19.70;99.90;;;;;;4939190;29;20783;-76
2022/06/22 06:37:03;;;;;;;7.90;4.87;;;19.70;99.90;;;;;;4938856;29;20501;-77
2022/06/22 06:39:35;;;;;;;8.40;4.70;;;19.90;99.90;;;;;;4939093;29;20429;-73
2022/06/22 06:42:08;;;;;;;7.40;4.40;;;20.10;99.90;;;;;;4921813;29;20945;-77
2022/06/22 06:44:38;;;;;;;7.47;4.90;;;20.00;99.90;;;;;;4938861;29;20433;-77
2022/06/22 06:47:09;;;;;;;15.23;5.10;;;20.10;99.90;;;;;;4938864;29;20839;-76
2022/06/22 06:49:41;;;;;;;7.10;4.87;;;20.00;99.90;;;;;;4938631;29;20437;-75
2022/06/22 06:52:48;;;;;;;10.80;4.53;;;20.20;99.90;;;;;;4938928;29;20427;-75
2022/06/22 06:55:34;;;;;;;6.27;4.50;;;20.20;99.90;;;;;;4938817;29;20427;-75
2022/06/22 06:58:35;;;;;;;5.00;3.50;;;20.50;99.90;;;;;;4938792;29;20828;-75
2022/06/22 07:01:01;;;;;;;9.67;5.90;;;20.50;99.90;;;;;;4938649;29;20822;-75
2022/06/22 07:03:46;;;;;;;6.70;4.33;;;20.50;99.90;;;;;;4938573;29;20431;-75
2022/06/22 07:06:12;;;;;;;8.73;6.03;;;20.50;99.90;;;;;;4937514;29;20207;-75
2022/06/22 07:08:43;;;;;;;4.77;4.27;;;20.50;99.90;;;;;;4937375;29;20434;-76
2022/06/22 07:11:08;;;;;;;5.53;4.87;;;20.60;99.90;;;;;;4937588;29;20257;-75
2022/06/22 07:13:44;;;;;;;6.37;4.30;;;20.50;99.90;;;;;;4937488;29;20500;-75
2022/06/22 07:16:19;;;;;;;5.17;4.17;;;20.60;99.90;;;;;;4937469;29;20197;-76
2022/06/22 07:18:55;;;;;;;9.33;5.40;;;20.80;99.90;;;;;;4937334;29;20427;-77
2022/06/22 07:21:34;;;;;;;7.00;5.67;;;21.00;99.90;;;;;;4937246;29;20489;-76
2022/06/22 07:24:10;;;;;;;5.00;4.50;;;21.00;99.90;;;;;;4937202;29;20430;-76
2022/06/22 07:26:49;;;;;;;6.80;4.20;;;21.00;99.90;;;;;;4937248;29;20474;-76
2022/06/22 07:29:22;;;;;;;5.83;4.23;;;21.10;99.90;;;;;;4937270;29;20425;-76
2022/06/22 07:32:00;;;;;;;8.73;4.77;;;21.10;99.90;;;;;;4936918;29;20966;-77
2022/06/22 07:34:41;;;;;;;6.20;5.37;;;21.20;99.90;;;;;;4937213;29;20426;-76
2022/06/22 07:37:18;;;;;;;4.43;3.70;;;21.10;99.90;;;;;;4937159;29;21026;-77
2022/06/22 07:39:53;;;;;;;5.00;3.43;;;21.10;99.90;;;;;;4936673;29;20775;-76
2022/06/22 07:42:20;;;;;;;8.30;4.10;;;21.30;99.90;;;;;;4936964;29;20521;-76
2022/06/22 07:44:46;;;;;;;6.30;4.63;;;21.40;99.90;;;;;;4936357;29;20435;-76
2022/06/22 07:47:33;;;;;;;10.10;5.33;;;21.40;99.90;;;;;;4936950;29;20454;-76
2022/06/22 07:50:26;;;;;;;5.60;3.87;;;21.50;99.90;;;;;;4936744;29;20559;-75
2022/06/22 07:53:15;;;;;;;5.97;4.90;;;21.50;99.90;;;;;;4917721;29;20548;-76
2022/06/22 07:55:50;;;;;;;5.70;4.40;;;21.40;99.90;;;;;;4927341;29;20876;-76
2022/06/22 07:58:32;;;;;;;10.63;4.57;;;21.30;99.90;;;;;;4936808;29;20430;-77
2022/06/22 08:01:03;;;;;;;11.53;4.53;;;21.40;99.90;;;;;;4936724;29;20438;-78
2022/06/22 08:03:45;;;;;;;9.53;4.60;;;21.50;99.90;;;;;;4936618;29;20426;-78
2022/06/22 08:06:17;;;;;;;7.47;3.60;;;21.40;99.90;;;;;;4936582;29;20526;-78
2022/06/22 08:08:52;;;;;;;8.90;4.07;;;21.40;99.90;;;;;;4936579;29;20430;-77
2022/06/22 08:11:25;;;;;;;8.20;4.10;;;21.40;99.90;;;;;;4936345;29;21059;-75
2022/06/22 08:14:05;;;;;;;5.10;3.53;;;21.50;99.90;;;;;;4936461;29;20423;-74
2022/06/22 08:16:41;;;;;;;6.70;2.73;;;21.40;99.90;;;;;;4936480;29;20438;-75
2022/06/22 08:19:07;;;;;;;4.73;3.10;;;21.60;99.90;;;;;;4936443;29;20426;-77
2022/06/22 08:21:41;;;;;;;6.67;3.57;;;21.60;99.90;;;;;;4936384;29;20789;-76
2022/06/22 08:24:09;;;;;;;3.30;2.80;;;21.60;99.90;;;;;;4936408;29;20437;-77
2022/06/22 08:26:35;;;;;;;4.63;3.50;;;21.70;99.90;;;;;;4936689;29;20567;-76
2022/06/22 08:29:01;;;;;;;6.77;3.83;;;21.90;99.90;;;;;;4938524;29;20526;-76
2022/06/22 08:31:45;;;;;;;5.20;3.53;;;21.80;99.90;;;;;;4941304;29;20590;-74
2022/06/22 08:34:15;;;;;;;7.20;4.20;;;21.90;99.90;;;;;;4936267;29;20775;-76
2022/06/22 08:36:53;;;;;;;7.23;3.60;;;21.80;99.90;;;;;;4926498;29;20426;-76
2022/06/22 08:39:41;;;;;;;6.47;3.40;;;22.00;99.90;;;;;;4945326;29;20460;-75
2022/06/22 08:42:21;;;;;;;5.33;3.30;;;22.30;99.90;;;;;;4946084;29;20802;-75
2022/06/22 08:45:10;;;;;;;8.13;3.90;;;22.40;99.90;;;;;;4945925;29;20430;-77
2022/06/22 08:48:06;;;;;;;4.23;3.33;;;22.40;99.90;;;;;;4944846;29;20447;-77
2022/06/22 08:50:57;;;;;;;5.43;3.27;;;22.70;99.90;;;;;;4943559;28;20423;-76
2022/06/22 08:53:55;;;;;;;4.50;2.57;;;22.80;99.90;;;;;;4947202;29;20513;-76
2022/06/22 08:56:51;;;;;;;8.97;3.23;;;22.80;99.90;;;;;;4945412;29;20446;-77
2022/06/22 08:59:39;;;;;;;5.43;2.90;;;22.90;99.10;;;;;;4934475;29;20588;-77
2022/06/22 09:02:25;;;;;;;6.97;4.17;;;22.90;99.90;;;;;;4946066;29;20533;-78
2022/06/22 09:05:02;;;;;;;4.40;3.17;;;23.10;99.90;;;;;;4944161;29;20431;-78
2022/06/22 09:07:46;;;;;;;5.93;2.87;;;23.30;99.30;;;;;;4944126;29;20443;-77
2022/06/22 09:10:23;;;;;;;4.03;2.53;;;23.40;99.90;;;;;;4944594;29;20423;-78
2022/06/22 09:13:20;;;;;;;8.83;3.30;;;23.60;98.60;;;;;;4945168;29;20804;-75
2022/06/22 09:16:11;;;;;;;6.23;3.00;;;23.50;98.30;;;;;;4935288;29;20436;-75
2022/06/22 09:19:13;;;;;;;6.10;3.60;;;23.50;96.20;;;;;;4935260;29;20904;-74
2022/06/22 09:21:54;;;;;;;5.67;2.97;;;23.50;96.90;;;;;;4935294;29;20462;-74
2022/06/22 09:24:41;;;;;;;3.03;2.53;;;23.80;96.20;;;;;;4935219;29;20454;-74
2022/06/22 09:27:18;;;;;;;4.83;3.30;;;23.90;94.10;;;;;;4935307;29;20567;-74
2022/06/22 09:30:17;;;;;;;4.73;3.30;;;24.00;93.70;;;;;;4935283;29;20795;-74
2022/06/22 09:32:58;;;;;;;3.05;2.33;;;24.10;93.30;;;;;;4937908;29;20459;-74
2022/06/22 09:35:42;;;;;;;5.17;2.37;;;24.10;91.10;;;;;;4945333;29;20545;-75
2022/06/22 09:38:20;;;;;;;6.70;3.37;;;24.10;92.20;;;;;;4943931;29;20433;-74
2022/06/22 09:41:12;;;;;;;2.60;2.20;;;24.30;90.70;;;;;;4943391;29;20454;-74
2022/06/22 09:43:53;;;;;;;3.10;2.90;;;24.20;92.90;;;;;;4944898;29;20914;-75
2022/06/22 09:46:47;;;;;;;4.47;2.57;;;24.10;91.70;;;;;;4944902;29;20880;-75
2022/06/22 09:49:29;;;;;;;3.20;2.40;;;24.00;88.90;;;;;;4944548;29;20470;-75
2022/06/22 09:52:03;;;;;;;3.30;2.30;;;24.20;89.20;;;;;;4944584;29;20431;-75
2022/06/22 09:57:40;;;;;;;3.30;2.50;;;24.50;91.00;;;;;;4944101;29;20526;-76
2022/06/22 10:00:21;;;;;;;2.80;2.50;;;24.60;85.10;;;;;;4943352;29;20454;-75
2022/06/22 10:03:23;;;;;;;2.60;2.20;;;24.40;88.90;;;;;;4946106;28;20427;-76
2022/06/22 10:06:00;;;;;;;4.10;2.23;;;24.30;91.80;;;;;;4947266;29;20450;-75
2022/06/22 10:08:44;;;;;;;3.20;2.50;;;24.60;86.30;;;;;;4947169;29;20435;-76
2022/06/22 10:11:44;;;;;;;7.13;2.80;;;24.50;84.30;;;;;;4946151;29;20505;-76
2022/06/22 10:14:26;;;;;;;6.43;2.80;;;24.70;83.00;;;;;;4938649;29;20442;-76
2022/06/22 10:17:04;;;;;;;6.30;3.33;;;24.70;83.30;;;;;;4939800;29;20505;-76
2022/06/22 10:19:36;;;;;;;5.43;2.53;;;24.90;81.90;;;;;;4947070;29;20426;-74
2022/06/22 10:22:15;;;;;;;3.97;2.20;;;25.00;79.60;;;;;;4946432;29;20430;-74
2022/06/22 10:24:59;;;;;;;2.87;2.17;;;24.80;86.50;;;;;;4944105;29;21008;-75
2022/06/22 10:27:36;;;;;;;4.50;2.13;;;24.90;85.20;;;;;;4943363;29;20457;-75
2022/06/22 10:30:16;;;;;;;4.37;2.77;;;25.00;82.30;;;;;;4948346;29;20448;-76
2022/06/22 10:33:10;;;;;;;7.83;2.60;;;25.20;80.30;;;;;;4948125;29;20478;-75
2022/06/22 10:35:47;;;;;;;2.80;2.50;;;25.20;81.60;;;;;;4957383;29;20422;-76
2022/06/22 10:38:41;;;;;;;4.10;2.50;;;25.10;77.00;;;;;;4957128;29;20437;-74
2022/06/22 10:47:31;;;;;;;6.40;2.73;;;25.40;78.80;;;;;;4947287;29;20501;-75
2022/06/22 10:50:24;;;;;;;4.33;2.40;;;25.30;80.90;;;;;;4945319;29;20445;-74
2022/06/22 10:53:06;;;;;;;6.10;2.50;;;25.30;79.30;;;;;;4946027;29;20450;-74
2022/06/22 10:55:52;;;;;;;3.57;2.33;;;25.30;84.00;;;;;;4946379;29;20481;-74
2022/06/22 10:58:29;;;;;;;3.90;2.20;;;25.30;80.30;;;;;;4947015;29;20483;-74
2022/06/22 11:01:10;;;;;;;3.33;2.60;;;25.50;80.80;;;;;;4946700;29;20768;-74
2022/06/22 11:03:36;;;;;;;3.17;2.50;;;25.60;79.60;;;;;;4946724;29;20431;-74
2022/06/22 11:06:39;;;;;;;4.67;2.00;;;25.70;69.30;;;;;;4944850;29;20469;-74
2022/06/22 11:09:15;;;;;;;2.63;2.20;;;25.80;73.10;;;;;;4945206;29;20179;-74
2022/06/22 11:11:56;;;;;;;4.00;2.47;;;25.80;76.30;;;;;;4944624;29;20411;-74
2022/06/22 11:14:54;;;;;;;4.77;2.23;;;25.70;73.80;;;;;;4939235;28;20434;-74
2022/06/22 11:17:34;;;;;;;5.60;2.40;;;25.80;77.10;;;;;;4937369;29;20435;-74
2022/06/22 11:20:36;;;;;;;3.63;2.13;;;26.00;76.00;;;;;;4937305;29;20419;-74
2022/06/22 11:23:12;;;;;;;4.47;2.20;;;26.10;77.60;;;;;;4914889;29;20431;-74
2022/06/22 11:32:29;;;;;;;3.50;2.60;;;26.30;71.80;;;;;;4885848;29;20729;-74
2022/06/22 11:35:19;;;;;;;3.43;2.60;;;26.00;73.10;;;;;;4946883;29;20954;-74
2022/06/22 11:37:48;;;;;;;4.57;2.13;;;26.20;70.10;;;;;;4946228;29;20430;-73
2022/06/22 11:40:41;;;;;;;2.97;2.43;;;26.20;73.10;;;;;;4946340;29;20418;-73
2022/06/22 11:43:26;;;;;;;2.70;2.10;;;26.40;72.40;;;;;;4946977;29;20481;-73
2022/06/22 11:46:12;;;;;;;2.23;1.90;;;26.30;73.80;;;;;;4947717;29;20956;-76
2022/06/22 11:48:49;;;;;;;4.40;2.37;;;26.40;73.80;;;;;;4947741;29;20430;-73
2022/06/22 11:51:39;;;;;;;2.90;2.10;;;26.40;63.80;;;;;;4947821;29;20493;-73
2022/06/22 11:54:50;;;;;;;6.80;2.83;;;26.60;69.70;;;;;;4946071;29;20506;-73
2022/06/22 11:57:47;;;;;;;4.93;2.70;;;26.60;65.20;;;;;;4946436;29;20494;-73
2022/06/22 12:00:21;;;;;;;7.10;2.80;;;26.70;66.30;;;;;;4877700;29;20434;-73
2022/06/22 12:03:25;;;;;;;4.97;3.53;;;26.80;67.00;;;;;;4920437;29;20443;-73
2022/06/22 12:06:02;;;;;;;8.60;3.47;;;26.80;67.60;;;;;;4944820;29;20985;-73
2022/06/22 12:08:46;;;;;;;5.03;2.20;;;26.90;71.60;;;;;;4946989;29;20803;-73
2022/06/22 12:11:18;;;;;;;2.60;2.40;;;26.90;69.60;;;;;;4947502;29;20423;-73
2022/06/22 12:17:32;;;;;;;4.73;2.40;;;27.10;66.60;;;;;;4947676;29;20429;-73
2022/06/22 12:20:14;;;;;;;6.57;2.63;;;27.20;68.40;;;;;;4945483;29;20521;-73
2022/06/22 12:22:52;;;;;;;5.23;2.83;;;27.30;62.00;;;;;;4945717;29;20801;-74
2022/06/22 12:25:37;;;;;;;7.00;3.00;;;27.40;65.90;;;;;;4944403;28;20505;-74
2022/06/22 12:28:26;;;;;;;4.40;2.63;;;27.00;62.30;;;;;;4946137;29;20485;-74
2022/06/22 12:31:19;;;;;;;7.33;2.37;;;27.00;64.10;;;;;;4946976;29;20466;-74
2022/06/22 12:33:53;;;;;;;2.53;2.10;;;27.10;65.50;;;;;;4946166;29;20454;-74
2022/06/22 12:36:37;;;;;;;4.67;2.53;;;27.20;66.20;;;;;;4945315;29;20435;-74
2022/06/22 12:39:11;;;;;;;5.57;2.53;;;27.30;70.00;;;;;;4945696;29;20435;-74
2022/06/22 12:42:14;;;;;;;4.97;2.77;;;27.10;65.70;;;;;;4945258;29;20423;-74
2022/06/22 12:45:01;;;;;;;3.20;2.90;;;27.30;66.30;;;;;;4946001;29;20446;-74
2022/06/22 12:47:50;;;;;;;2.80;2.37;;;27.50;64.30;;;;;;4946491;29;20533;-76
2022/06/22 12:51:02;;;;;;;7.57;2.40;;;27.70;68.10;;;;;;4933888;29;20502;-76
2022/06/22 12:53:47;;;;;;;5.10;2.40;;;27.80;67.30;;;;;;4946606;29;20552;-77
2022/06/22 12:56:37;;;;;;;4.40;2.80;;;27.90;64.40;;;;;;4946523;29;20481;-77
2022/06/22 12:59:13;;;;;;;5.73;2.73;;;28.00;62.00;;;;;;4945167;29;20877;-76
2022/06/22 13:01:40;;;;;;;4.70;2.60;;;28.00;60.30;;;;;;4952152;29;20470;-76
2022/06/22 13:04:10;;;;;;;2.83;2.63;;;27.90;59.40;;;;;;4955465;29;20485;-75
2022/06/22 13:06:41;;;;;;;4.97;2.57;;;27.60;62.00;;;;;;4944530;29;20507;-80
2022/06/22 13:09:08;;;;;;;5.80;2.50;;;27.70;61.00;;;;;;4945129;29;20425;-79
2022/06/22 13:11:35;;;;;;;3.83;2.63;;;27.70;59.80;;;;;;4949579;29;20460;-81
2022/06/22 13:14:24;;;;;;;2.63;2.40;;;27.70;61.10;;;;;;4945516;29;20488;-83
2022/06/22 13:17:00;;;;;;;4.07;2.72;;;27.90;58.80;;;;;;4928820;29;20437;-82
2022/06/22 13:19:58;;;;;;;6.00;2.70;;;27.80;58.90;;;;;;4931207;29;20174;-81
2022/06/22 13:22:47;;;;;;;4.33;2.10;;;27.80;58.90;;;;;;4934448;29;20981;-81
2022/06/22 13:25:19;;;;;;;2.70;1.90;;;27.80;54.90;;;;;;4946331;29;20499;-81
2022/06/22 13:27:54;;;;;;;5.10;2.67;;;27.60;57.40;;;;;;4928485;29;20466;-81
2022/06/22 13:30:57;;;;;;;4.10;2.70;;;27.60;59.40;;;;;;4944993;29;20497;-81
2022/06/22 13:33:30;;;;;;;4.53;3.00;;;27.90;56.60;;;;;;4944955;29;20441;-82
2022/06/22 13:36:16;;;;;;;4.07;2.47;;;27.90;55.00;;;;;;4944307;29;20458;-81
2022/06/22 13:38:56;;;;;;;3.10;2.50;;;28.00;54.30;;;;;;4944789;29;20427;-81
2022/06/22 13:41:56;;;;;;;3.93;2.97;;;28.10;56.20;;;;;;4945106;29;20489;-81
2022/06/22 13:44:28;;;;;;;6.60;2.57;;;28.00;56.30;;;;;;4860345;29;20438;-81
2022/06/22 13:47:16;;;;;;;3.37;1.87;;;27.90;56.60;;;;;;4941554;29;20573;-81
2022/06/22 13:50:17;;;;;;;4.40;2.10;;;28.00;53.20;;;;;;4938432;29;20906;-80
2022/06/22 13:52:47;;;;;;;7.23;2.47;;;28.20;54.50;;;;;;4936817;29;20443;-79
2022/06/22 13:55:27;;;;;;;2.97;2.30;;;28.30;55.50;;;;;;4955505;29;20921;-77
2022/06/22 13:58:00;;;;;;;4.37;2.40;;;28.20;56.90;;;;;;4954996;29;20429;-80
2022/06/22 14:00:32;;;;;;;3.20;2.13;;;28.20;58.90;;;;;;4954820;29;20429;-71
2022/06/22 14:03:42;;;;;;;3.10;2.33;;;28.20;59.70;;;;;;4952403;29;20441;-79
2022/06/22 14:06:35;;;;;;;4.67;2.70;;;28.30;57.60;;;;;;4934536;29;20969;-83
2022/06/22 14:09:19;;;;;;;3.83;2.60;;;28.40;58.80;;;;;;4945651;29;20972;-82
2022/06/22 14:12:04;;;;;;;2.90;2.60;;;28.30;58.90;;;;;;4945467;29;20439;-82
2022/06/22 14:15:00;;;;;;;3.47;2.40;;;28.10;56.00;;;;;;4946007;29;20461;-90
2022/06/22 14:17:31;;;;;;;5.37;2.80;;;28.30;59.60;;;;;;4926906;29;20493;-85
2022/06/22 14:20:29;;;;;;;3.47;2.53;;;28.50;54.80;;;;;;4944238;29;20541;-84
2022/06/22 14:23:03;;;;;;;4.20;2.10;;;28.50;56.30;;;;;;4935802;29;20427;-83
2022/06/22 14:25:39;;;;;;;5.20;2.57;;;28.70;55.30;;;;;;4935628;29;20470;-81
2022/06/22 14:28:08;;;;;;;6.83;2.07;;;28.60;55.10;;;;;;4935686;29;20426;-84
2022/06/22 14:30:45;;;;;;;4.37;2.83;;;28.70;56.00;;;;;;4935242;29;20439;-85
2022/06/22 14:33:45;;;;;;;1.93;1.77;;;28.60;54.00;;;;;;4935551;29;20934;-82
2022/06/22 14:36:20;;;;;;;3.40;2.53;;;28.60;54.20;;;;;;4935517;29;20919;-82
2022/06/22 14:39:11;;;;;;;4.97;3.00;;;28.70;54.90;;;;;;4935282;29;20423;-79
2022/06/22 14:41:42;;;;;;;6.57;2.00;;;28.80;53.30;;;;;;4935504;29;20458;-87
2022/06/22 14:44:47;;;;;;;3.37;2.30;;;28.70;55.30;;;;;;4918355;29;20423;-80
2022/06/22 14:47:29;;;;;;;3.47;2.87;;;28.50;55.00;;;;;;4922918;29;20478;-79
2022/06/22 14:50:14;;;;;;;2.63;2.43;;;28.50;52.90;;;;;;4944766;29;20500;-80
2022/06/22 14:52:53;;;;;;;4.50;3.50;;;28.50;52.30;;;;;;4948080;29;20457;-79
2022/06/22 14:55:48;;;;;;;5.87;2.00;;;28.60;53.80;;;;;;4948226;29;20427;-80
2022/06/22 14:58:33;;;;;;;3.10;2.10;;;28.70;53.70;;;;;;4951072;29;20431;-78
2022/06/22 15:01:10;;;;;;;2.47;2.20;;;28.70;52.70;;;;;;4945240;29;20534;-79
2022/06/22 15:03:36;;;;;;;3.10;1.70;;;28.80;52.90;;;;;;4947854;29;20426;-78
2022/06/22 15:06:04;;;;;;;4.83;2.13;;;28.90;51.00;;;;;;4943758;29;20970;-78
2022/06/22 15:08:58;;;;;;;3.67;2.97;;;28.70;50.70;;;;;;4945888;29;20678;-78
2022/06/22 15:14:28;;;;;;;4.00;1.90;;;28.90;51.60;;;;;;4946164;29;20846;-78
2022/06/22 15:16:59;;;;;;;3.53;1.77;;;28.90;49.70;;;;;;4946839;29;20506;-78
2022/06/22 15:19:39;;;;;;;2.57;2.37;;;29.00;49.40;;;;;;4946340;29;20437;-78
2022/06/22 15:22:15;;;;;;;4.97;2.40;;;28.90;48.70;;;;;;4943817;29;21001;-78
2022/06/22 15:25:04;;;;;;;2.90;2.07;;;28.80;49.80;;;;;;4947693;29;20434;-81
2022/06/22 15:27:38;;;;;;;5.07;1.90;;;28.90;50.90;;;;;;4945707;29;20803;-78
2022/06/22 15:30:12;;;;;;;3.13;2.10;;;29.00;48.70;;;;;;4937266;29;20482;-78
2022/06/22 15:32:46;;;;;;;2.80;1.90;;;28.90;47.60;;;;;;4951864;29;20567;-77
2022/06/22 15:35:24;;;;;;;2.90;2.13;;;28.90;47.80;;;;;;4942530;29;20946;-78
2022/06/22 15:38:06;;;;;;;3.17;1.70;;;28.80;49.60;;;;;;4928828;29;20442;-78
2022/06/22 15:40:40;;;;;;;4.10;1.90;;;28.40;49.80;;;;;;4946141;29;20450;-75
2022/06/22 15:43:21;;;;;;;3.33;2.13;;;28.60;50.60;;;;;;4946849;29;20455;-76
2022/06/22 15:45:56;;;;;;;2.90;2.43;;;28.70;49.10;;;;;;4955627;29;20477;-73
2022/06/22 15:48:31;;;;;;;3.60;2.63;;;28.60;49.70;;;;;;4933857;29;20797;-79
2022/06/22 15:51:08;;;;;;;2.60;1.90;;;28.70;48.90;;;;;;4941800;29;20444;-79
2022/06/22 15:53:49;;;;;;;3.40;1.87;;;28.80;47.60;;;;;;4954575;29;20441;-76
2022/06/22 15:56:28;;;;;;;2.73;2.47;;;28.80;47.10;;;;;;4954156;29;20529;-74
2022/06/22 15:59:20;;;;;;;2.63;1.70;;;28.80;46.80;;;;;;4955398;28;20430;-74
2022/06/22 16:02:00;;;;;;;3.87;1.90;;;28.70;47.40;;;;;;4916083;29;20434;-73
2022/06/22 16:04:34;;;;;;;3.40;2.23;;;28.80;47.10;;;;;;4951131;29;20529;-73
2022/06/22 16:07:20;;;;;;;3.87;2.20;;;28.70;46.60;;;;;;4944113;29;20565;-72
2022/06/22 16:09:57;;;;;;;2.77;2.47;;;28.60;47.00;;;;;;4936362;29;20451;-74
2022/06/22 16:15:41;;;;;;;2.40;2.10;;;28.50;49.00;;;;;;4936746;29;20530;-71
2022/06/22 16:18:22;;;;;;;2.30;1.83;;;28.50;47.10;;;;;;4926465;29;20582;-74
2022/06/22 16:21:02;;;;;;;2.30;1.70;;;28.50;46.70;;;;;;4936422;29;20502;-73
2022/06/22 16:23:50;;;;;;;4.23;1.97;;;28.50;48.50;;;;;;4938203;29;20430;-73
2022/06/22 16:26:23;;;;;;;4.47;2.00;;;28.40;48.70;;;;;;4954962;29;20508;-74
2022/06/22 16:28:56;;;;;;;10.33;3.50;;;28.50;48.80;;;;;;4953265;29;20886;-72
2022/06/22 16:31:28;;;;;;;6.43;2.53;;;28.40;53.30;;;;;;4935706;29;20506;-72
2022/06/22 16:34:00;;;;;;;3.30;1.90;;;28.30;48.30;;;;;;4943790;29;20435;-73
2022/06/22 16:36:35;;;;;;;5.27;2.00;;;28.20;51.50;;;;;;4954999;29;20470;-73
2022/06/22 16:39:03;;;;;;;1.90;1.53;;;28.10;52.10;;;;;;4946741;29;20902;-75
2022/06/22 16:41:44;;;;;;;4.07;1.87;;;28.00;51.90;;;;;;4949559;29;20438;-78
2022/06/22 16:44:48;;;;;;;4.13;1.97;;;27.90;50.40;;;;;;4937824;29;20508;-79
2022/06/22 16:47:13;;;;;;;6.27;1.97;;;27.90;50.10;;;;;;4947956;29;20473;-80
2022/06/22 16:49:45;;;;;;;6.80;2.20;;;27.90;49.80;;;;;;4940865;29;20775;-78
2022/06/22 16:52:17;;;;;;;6.90;2.80;;;27.90;48.90;;;;;;4935899;29;20274;-83
2022/06/22 16:54:50;;;;;;;5.37;2.40;;;27.90;49.10;;;;;;4935556;29;20430;-79
2022/06/22 16:57:20;;;;;;;5.30;1.90;;;27.90;49.70;;;;;;4935189;29;20429;-81
2022/06/22 17:00:00;;;;;;;8.33;2.50;;;27.80;50.80;;;;;;4935538;29;20171;-78
2022/06/22 17:02:34;;;;;;;5.93;3.70;;;27.80;51.50;;;;;;4935767;29;20560;-83
2022/06/22 17:05:08;;;;;;;139.10;114.13;;;28.00;50.30;;;;;;4918457;29;20952;-81
2022/06/22 17:07:52;;;;;;;22.93;20.80;;;28.30;49.80;;;;;;4940755;29;20508;-89
2022/06/22 17:10:43;;;;;;;1354.23;999.90;;;28.40;49.00;;;;;;4949568;29;20473;-83
2022/06/22 17:13:15;;;;;;;887.07;789.90;;;28.60;51.40;;;;;;4939189;29;20866;-84
2022/06/22 17:16:09;;;;;;;48.80;41.70;;;28.70;50.80;;;;;;4951781;29;20959;-81
2022/06/22 17:18:59;;;;;;;431.20;404.90;;;28.80;49.20;;;;;;4954392;29;20466;-82
2022/06/22 17:21:37;;;;;;;259.97;244.07;;;28.70;49.20;;;;;;4954456;29;20452;-82
2022/06/22 17:24:43;;;;;;;272.40;254.67;;;28.70;49.90;;;;;;4954186;29;20433;-81
2022/06/22 17:27:24;;;;;;;57.37;53.40;;;29.00;47.80;;;;;;4922080;29;20537;-83